createdAt,value
2022-09-20T00:02:17.905Z,86.11
2022-09-20T00:04:50.496Z,86.28
2022-09-20T00:07:20.941Z,86.44
2022-09-20T00:09:51.246Z,86.33
2022-09-20T00:12:21.469Z,86.18
2022-09-20T00:14:51.772Z,86.43
2022-09-20T00:17:24.498Z,86.45
2022-09-20T00:19:54.827Z,86.46
2022-09-20T00:22:25.134Z,86.28
2022-09-20T00:24:55.449Z,86.35
2022-09-20T00:27:28.110Z,86.52
2022-09-20T00:29:58.802Z,86.37
2022-09-20T00:32:29.142Z,86.51
2022-09-20T00:35:11.644Z,86.37
2022-09-20T00:37:44.164Z,86.53
2022-09-20T00:40:18.391Z,86.37
2022-09-20T00:42:49.075Z,86.44
2022-09-20T00:45:23.576Z,86.53
2022-09-20T00:47:58.160Z,86.66
2022-09-20T00:50:34.955Z,86.49
2022-09-20T00:53:10.582Z,86.58
2022-09-20T00:55:45.661Z,86.55
2022-09-20T00:58:18.408Z,86.46
2022-09-20T01:00:50.843Z,86.57
2022-09-20T01:03:23.325Z,86.44
2022-09-20T01:05:55.971Z,86.69
2022-09-20T01:08:26.547Z,86.45
2022-09-20T01:10:56.948Z,86.56
2022-09-20T01:13:27.339Z,86.47
2022-09-20T01:16:00.577Z,86.37
2022-09-20T01:18:33.106Z,86.48
2022-09-20T01:21:05.023Z,86.43
2022-09-20T01:23:49.960Z,86.35
2022-09-20T01:26:54.237Z,86.42
2022-09-20T01:29:42.645Z,86.66
2022-09-20T01:32:17.775Z,86.47
2022-09-20T01:34:50.973Z,86.50
2022-09-20T01:37:27.953Z,86.55
2022-09-20T01:40:03.436Z,86.41
2022-09-20T01:42:38.019Z,86.67
2022-09-20T01:45:17.784Z,86.36
2022-09-20T01:47:57.548Z,86.48
2022-09-20T01:50:38.649Z,86.56
2022-09-20T01:53:36.554Z,86.73
2022-09-20T01:56:49.315Z,86.71
2022-09-20T01:59:41.732Z,86.62
2022-09-20T02:02:34.924Z,86.60
2022-09-20T02:05:28.379Z,86.46
2022-09-20T02:08:20.962Z,86.59
2022-09-20T02:11:13.426Z,86.62
2022-09-20T02:14:12.056Z,86.76
2022-09-20T02:16:54.499Z,86.54
2022-09-20T02:19:42.450Z,86.68
2022-09-20T02:22:28.157Z,86.74
2022-09-20T02:25:09.884Z,86.53
2022-09-20T02:27:54.144Z,86.89
2022-09-20T02:30:36.428Z,86.83
2022-09-20T02:33:22.535Z,86.79
2022-09-20T02:36:15.114Z,86.77
2022-09-20T02:39:00.596Z,86.90
2022-09-20T02:42:00.299Z,87.13
2022-09-20T02:44:47.199Z,86.87
2022-09-20T02:47:28.904Z,87.13
2022-09-20T02:50:16.031Z,87.00
2022-09-20T02:52:58.316Z,86.86
2022-09-20T02:55:39.565Z,87.06
2022-09-20T02:58:27.142Z,86.97
2022-09-20T03:01:02.562Z,87.12
2022-09-20T03:03:45.538Z,86.91
2022-09-20T03:06:28.686Z,87.08
2022-09-20T03:09:08.874Z,87.10
2022-09-20T03:11:45.775Z,87.05
2022-09-20T03:14:23.240Z,87.20
2022-09-20T03:17:03.789Z,86.94
2022-09-20T03:19:48.338Z,87.26
2022-09-20T03:22:37.658Z,87.10
2022-09-20T03:25:26.345Z,87.10
2022-09-20T03:28:06.595Z,87.31
2022-09-20T03:30:52.539Z,87.06
2022-09-20T03:33:31.227Z,87.22
2022-09-20T03:36:15.176Z,87.56
2022-09-20T03:39:04.324Z,87.22
2022-09-20T03:41:56.274Z,87.26
2022-09-20T03:45:00.349Z,87.30
2022-09-20T03:47:49.074Z,87.23
2022-09-20T03:50:46.225Z,87.24
2022-09-20T03:53:51.885Z,87.09
2022-09-20T03:56:43.924Z,87.12
2022-09-20T03:59:40.708Z,87.34
2022-09-20T04:02:25.666Z,87.39
2022-09-20T04:04:59.875Z,87.46
2022-09-20T04:07:39.326Z,87.36
2022-09-20T04:10:26.770Z,87.44
2022-09-20T04:13:11.950Z,87.33
2022-09-20T04:15:51.295Z,87.46
2022-09-20T04:18:30.088Z,87.56
2022-09-20T04:21:05.054Z,87.75
2022-09-20T04:23:46.745Z,87.48
2022-09-20T04:26:23.571Z,87.53
2022-09-20T04:29:01.967Z,87.45
2022-09-20T04:31:43.095Z,87.63
2022-09-20T04:34:22.845Z,87.65
2022-09-20T04:37:19.383Z,87.57
2022-09-20T04:39:57.169Z,87.74
2022-09-20T04:42:54.660Z,87.89
2022-09-20T04:45:58.563Z,87.83
2022-09-20T04:48:53.673Z,87.82
2022-09-20T04:51:46.872Z,87.85
2022-09-20T04:54:44.714Z,87.89
2022-09-20T04:57:45.871Z,87.89
2022-09-20T05:00:20.174Z,87.83
2022-09-20T05:03:40.364Z,88.06
2022-09-20T05:06:43.375Z,88.22
2022-09-20T05:09:42.286Z,88.25
2022-09-20T05:12:28.766Z,88.22
2022-09-20T05:15:24.497Z,88.23
2022-09-20T05:18:35.182Z,88.26
2022-09-20T05:21:29.734Z,88.54
2022-09-20T05:24:12.597Z,88.33
2022-09-20T05:26:53.249Z,88.53
2022-09-20T05:29:32.869Z,88.46
2022-09-20T05:32:10.642Z,88.37
2022-09-20T05:34:47.441Z,88.56
2022-09-20T05:37:34.427Z,88.34
2022-09-20T05:40:16.407Z,88.43
2022-09-20T05:42:54.911Z,88.51
2022-09-20T05:45:43.788Z,88.59
2022-09-20T05:48:19.759Z,88.42
2022-09-20T05:51:03.097Z,88.59
2022-09-20T05:54:17.176Z,88.42
2022-09-20T05:56:53.582Z,88.53
2022-09-20T05:59:37.959Z,88.44
2022-09-20T06:02:23.830Z,88.32
2022-09-20T06:05:04.165Z,88.31
2022-09-20T06:07:52.336Z,88.19
2022-09-20T06:10:47.317Z,87.99
2022-09-20T06:13:31.999Z,88.06
2022-09-20T06:16:05.389Z,87.93
2022-09-20T06:18:42.844Z,87.87
2022-09-20T06:21:27.358Z,87.65
2022-09-20T06:24:02.380Z,87.53
2022-09-20T06:26:38.011Z,87.37
2022-09-20T06:29:13.136Z,87.41
2022-09-20T06:31:43.545Z,87.20
2022-09-20T06:34:15.932Z,87.06
2022-09-20T06:37:09.734Z,86.99
2022-09-20T06:40:04.400Z,86.89
2022-09-20T06:42:34.770Z,86.56
2022-09-20T06:45:05.800Z,86.49
2022-09-20T06:47:38.882Z,86.18
2022-09-20T06:50:15.841Z,86.09
2022-09-20T06:52:47.480Z,85.87
2022-09-20T06:55:26.041Z,85.86
2022-09-20T06:57:59.136Z,85.71
2022-09-20T07:00:29.428Z,85.76
2022-09-20T07:02:59.762Z,85.55
2022-09-20T07:05:30.050Z,85.60
2022-09-20T07:08:01.624Z,85.36
2022-09-20T07:10:32.725Z,85.30
2022-09-20T07:13:04.043Z,85.08
2022-09-20T07:15:36.431Z,84.94
2022-09-20T07:18:07.768Z,84.87
2022-09-20T07:20:38.019Z,84.80
2022-09-20T07:23:08.313Z,84.68
2022-09-20T07:25:38.961Z,84.60
2022-09-20T07:28:09.218Z,84.44
2022-09-20T07:30:39.734Z,84.32
2022-09-20T07:33:10.935Z,84.26
2022-09-20T07:35:41.802Z,84.01
2022-09-20T07:38:12.193Z,83.87
2022-09-20T07:40:45.013Z,83.75
2022-09-20T07:43:15.328Z,83.68
2022-09-20T07:45:45.673Z,83.55
2022-09-20T07:48:16.256Z,83.52
2022-09-20T07:50:53.534Z,83.49
2022-09-20T07:53:24.924Z,83.26
2022-09-20T07:56:03.293Z,83.25
2022-09-20T07:58:35.873Z,82.91
2022-09-20T08:01:09.676Z,82.66
2022-09-20T08:03:40.487Z,82.42
2022-09-20T08:06:14.551Z,82.24
2022-09-20T08:08:45.386Z,82.16
2022-09-20T08:11:19.200Z,82.02
2022-09-20T08:14:08.256Z,81.80
2022-09-20T08:16:43.730Z,81.35
2022-09-20T08:19:18.067Z,81.05
2022-09-20T08:21:48.830Z,80.71
2022-09-20T08:24:19.456Z,80.34
2022-09-20T08:26:49.897Z,79.95
2022-09-20T08:29:20.215Z,79.79
2022-09-20T08:31:50.617Z,79.64
2022-09-20T08:34:21.080Z,79.51
2022-09-20T08:36:52.727Z,79.24
2022-09-20T08:42:23.922Z,79.05
2022-09-20T08:44:59.175Z,78.91
2022-09-20T08:47:33.257Z,78.75
2022-09-20T08:50:09.965Z,78.58
2022-09-20T08:52:45.554Z,78.44
2022-09-20T08:55:18.701Z,78.34
2022-09-20T08:57:53.115Z,78.24
2022-09-20T09:00:26.335Z,78.13
2022-09-20T09:03:01.226Z,77.61
2022-09-20T09:05:38.388Z,77.44
2022-09-20T09:08:16.490Z,77.44
2022-09-20T09:10:54.719Z,77.07
2022-09-20T09:13:31.161Z,76.76
2022-09-20T09:16:07.563Z,76.70
2022-09-20T09:18:40.156Z,76.34
2022-09-20T09:21:18.488Z,76.34
2022-09-20T09:23:54.456Z,76.10
2022-09-20T09:26:25.890Z,75.79
2022-09-20T09:29:16.191Z,75.61
2022-09-20T09:31:47.334Z,75.57
2022-09-20T09:34:29.254Z,75.36
2022-09-20T09:37:00.254Z,75.31
2022-09-20T09:39:33.132Z,75.15
2022-09-20T09:42:19.956Z,75.23
2022-09-20T09:44:50.506Z,75.23
2022-09-20T09:47:29.400Z,75.17
2022-09-20T09:50:04.886Z,75.12
2022-09-20T09:52:38.031Z,75.02
2022-09-20T09:55:11.180Z,74.91
2022-09-20T09:57:55.934Z,74.98
2022-09-20T10:00:28.796Z,74.93
2022-09-20T10:03:29.907Z,74.99
2022-09-20T10:06:14.604Z,74.96
2022-09-20T10:08:59.765Z,74.84
2022-09-20T10:11:41.911Z,74.57
2022-09-20T10:14:29.539Z,74.37
2022-09-20T10:17:19.105Z,74.28
2022-09-20T10:20:05.300Z,73.89
2022-09-20T10:23:06.649Z,73.93
2022-09-20T10:25:49.141Z,73.67
2022-09-20T10:28:35.524Z,73.69
2022-09-20T10:31:23.565Z,73.61
2022-09-20T10:34:11.224Z,73.40
2022-09-20T10:36:50.647Z,73.03
2022-09-20T10:39:26.373Z,72.88
2022-09-20T10:42:26.750Z,72.66
2022-09-20T10:45:11.762Z,72.41
2022-09-20T10:47:54.499Z,71.82
2022-09-20T10:50:34.917Z,71.46
2022-09-20T10:53:30.256Z,71.09
2022-09-20T10:56:10.599Z,71.28
2022-09-20T10:58:56.971Z,71.12
2022-09-20T11:01:35.535Z,70.80
2022-09-20T11:04:23.953Z,70.76
2022-09-20T11:07:03.872Z,70.61
2022-09-20T11:09:38.942Z,70.35
2022-09-20T11:12:16.278Z,69.95
2022-09-20T11:14:53.935Z,69.40
2022-09-20T11:17:27.948Z,68.49
2022-09-20T11:20:07.417Z,68.10
2022-09-20T11:22:44.384Z,67.99
2022-09-20T11:25:23.979Z,68.02
2022-09-20T11:28:02.792Z,67.73
2022-09-20T11:30:39.299Z,67.79
2022-09-20T11:33:18.733Z,67.83
2022-09-20T11:35:54.597Z,67.99
2022-09-20T11:38:30.057Z,68.00
2022-09-20T11:41:08.761Z,67.87
2022-09-20T11:43:46.064Z,67.75
2022-09-20T11:46:24.310Z,67.78
2022-09-20T11:49:01.634Z,67.97
2022-09-20T11:52:18.891Z,67.59
2022-09-20T11:55:10.824Z,67.11
2022-09-20T11:57:42.363Z,66.91
2022-09-20T12:00:14.129Z,66.79
2022-09-20T12:02:49.790Z,66.52
2022-09-20T12:05:33.691Z,66.17
2022-09-20T12:08:06.626Z,66.43
2022-09-20T12:10:40.345Z,66.68
2022-09-20T12:13:24.441Z,66.97
2022-09-20T12:16:03.256Z,66.98
2022-09-20T12:18:47.184Z,67.34
2022-09-20T12:21:23.849Z,67.46
2022-09-20T12:24:21.274Z,67.13
2022-09-20T12:26:56.312Z,66.40
2022-09-20T12:29:54.773Z,66.44
2022-09-20T12:32:56.446Z,66.79
2022-09-20T12:36:14.900Z,66.70
2022-09-20T12:38:58.771Z,66.33
2022-09-20T12:41:45.589Z,66.24
2022-09-20T12:44:32.172Z,66.44
2022-09-20T12:47:04.849Z,66.72
2022-09-20T12:50:00.519Z,66.88
2022-09-20T12:52:57.258Z,66.21
2022-09-20T12:55:43.934Z,65.69
2022-09-20T12:58:28.099Z,65.26
2022-09-20T13:01:30.316Z,64.92
2022-09-20T13:04:32.345Z,65.02
2022-09-20T13:07:34.698Z,65.10
2022-09-20T13:10:20.490Z,65.46
2022-09-20T13:12:54.658Z,65.66
2022-09-20T13:15:25.147Z,65.53
2022-09-20T13:17:59.982Z,65.52
2022-09-20T13:20:34.938Z,65.54
2022-09-20T13:23:06.492Z,65.39
2022-09-20T13:25:42.004Z,64.94
2022-09-20T13:28:22.815Z,64.92
2022-09-20T13:31:13.202Z,64.57
2022-09-20T13:33:43.649Z,63.91
2022-09-20T13:36:14.707Z,63.62
2022-09-20T13:38:45.969Z,63.39
2022-09-20T13:41:16.459Z,62.92
2022-09-20T13:43:49.971Z,62.79
2022-09-20T13:46:25.428Z,62.65
2022-09-20T13:49:17.517Z,62.82
2022-09-20T13:51:48.984Z,62.64
2022-09-20T13:54:28.485Z,62.55
2022-09-20T13:57:02.763Z,62.29
2022-09-20T13:59:37.670Z,62.14
2022-09-20T14:02:20.688Z,62.06
2022-09-20T14:04:52.708Z,62.09
2022-09-20T14:07:25.828Z,62.21
2022-09-20T14:09:56.995Z,62.01
2022-09-20T14:12:30.376Z,61.86
2022-09-20T14:15:02.240Z,61.71
2022-09-20T14:17:38.425Z,61.59
2022-09-20T14:20:15.337Z,61.60
2022-09-20T14:22:45.032Z,61.47
2022-09-20T14:25:28.459Z,61.54
2022-09-20T14:28:18.669Z,61.43
2022-09-20T14:30:49.636Z,61.52
2022-09-20T14:33:24.400Z,61.59
2022-09-20T14:35:55.519Z,61.79
2022-09-20T14:38:28.516Z,61.87
2022-09-20T14:40:59.170Z,62.00
2022-09-20T14:43:34.238Z,62.23
2022-09-20T14:46:06.780Z,62.36
2022-09-20T14:48:41.995Z,62.45
2022-09-20T14:51:24.378Z,62.62
2022-09-20T14:54:16.010Z,62.98
2022-09-20T14:56:53.164Z,63.23
2022-09-20T14:59:27.306Z,63.09
2022-09-20T15:02:02.931Z,63.06
2022-09-20T15:04:35.497Z,63.34
2022-09-20T15:07:08.539Z,63.67
2022-09-20T15:09:38.948Z,63.80
2022-09-20T15:12:15.243Z,64.18
2022-09-20T15:14:46.100Z,63.78
2022-09-20T15:17:19.086Z,63.03
2022-09-20T15:19:53.740Z,62.53
2022-09-20T15:22:26.080Z,62.53
2022-09-20T15:24:58.920Z,62.52
2022-09-20T15:27:29.615Z,62.30
2022-09-20T15:29:59.943Z,62.24
2022-09-20T15:32:30.394Z,62.37
2022-09-20T15:35:00.768Z,62.45
2022-09-20T15:37:31.117Z,62.42
2022-09-20T15:40:02.243Z,62.36
2022-09-20T15:42:32.787Z,62.59
2022-09-20T15:45:03.497Z,62.53
2022-09-20T15:47:33.925Z,62.67
2022-09-20T15:50:04.897Z,62.65
2022-09-20T15:52:38.034Z,62.62
2022-09-20T15:55:10.717Z,62.78
2022-09-20T15:57:41.985Z,62.76
2022-09-20T16:00:15.042Z,62.92
2022-09-20T16:02:49.162Z,63.14
2022-09-20T16:05:21.916Z,63.25
2022-09-20T16:07:52.439Z,63.52
2022-09-20T16:10:22.865Z,63.78
2022-09-20T16:12:55.942Z,64.23
2022-09-20T16:15:28.513Z,65.04
2022-09-20T16:18:16.723Z,65.64
2022-09-20T16:20:48.444Z,66.39
2022-09-20T16:23:21.825Z,66.90
2022-09-20T16:26:00.214Z,67.40
2022-09-20T16:28:31.148Z,67.86
2022-09-20T16:31:01.676Z,68.35
2022-09-20T16:33:34.285Z,68.66
2022-09-20T16:36:05.109Z,69.00
2022-09-20T16:38:37.278Z,69.26
2022-09-20T16:41:08.467Z,69.42
2022-09-20T16:43:40.041Z,69.70
2022-09-20T16:46:12.098Z,69.59
2022-09-20T16:48:48.049Z,69.64
2022-09-20T16:51:20.577Z,69.77
2022-09-20T16:53:58.670Z,69.96
2022-09-20T16:56:30.733Z,70.20
2022-09-20T16:59:01.064Z,70.23
2022-09-20T17:01:32.711Z,70.33
2022-09-20T17:04:05.926Z,70.45
2022-09-20T17:06:38.385Z,70.47
2022-09-20T17:09:09.541Z,70.62
2022-09-20T17:11:41.837Z,70.86
2022-09-20T17:14:12.567Z,71.00
2022-09-20T17:16:47.596Z,71.27
2022-09-20T17:19:19.708Z,71.54
2022-09-20T17:21:52.147Z,71.76
2022-09-20T17:24:24.300Z,72.00
2022-09-20T17:26:55.650Z,72.12
2022-09-20T17:29:28.162Z,72.31
2022-09-20T17:32:00.264Z,72.36
2022-09-20T17:34:31.863Z,72.34
2022-09-20T17:37:03.512Z,72.48
2022-09-20T17:39:33.878Z,72.66
2022-09-20T17:42:04.168Z,72.63
2022-09-20T17:44:36.819Z,72.94
2022-09-20T17:47:08.240Z,73.06
2022-09-20T17:49:40.711Z,73.09
2022-09-20T17:52:11.338Z,73.22
2022-09-20T17:54:42.356Z,73.30
2022-09-20T17:57:12.676Z,73.58
2022-09-20T17:59:42.947Z,73.56
2022-09-20T18:02:13.459Z,73.76
2022-09-20T18:04:43.750Z,73.72
2022-09-20T18:07:16.399Z,73.68
2022-09-20T18:09:46.760Z,73.80
2022-09-20T18:12:20.840Z,74.24
2022-09-20T18:14:51.724Z,74.31
2022-09-20T18:17:22.171Z,74.37
2022-09-20T18:19:52.582Z,74.61
2022-09-20T18:22:22.899Z,74.63
2022-09-20T18:24:53.158Z,74.73
2022-09-20T18:27:23.561Z,74.78
2022-09-20T18:29:53.899Z,75.02
2022-09-20T18:32:24.415Z,75.20
2022-09-20T18:34:54.788Z,75.24
2022-09-20T18:37:25.063Z,75.03
2022-09-20T18:39:55.767Z,75.44
2022-09-20T18:42:26.454Z,75.49
2022-09-20T18:44:56.716Z,75.61
2022-09-20T18:47:27.151Z,75.74
2022-09-20T18:49:57.528Z,75.81
2022-09-20T18:52:29.799Z,76.01
2022-09-20T18:55:00.411Z,76.07
2022-09-20T18:57:31.536Z,76.27
2022-09-20T19:00:03.995Z,76.25
2022-09-20T19:03:04.784Z,76.53
2022-09-20T19:05:44.144Z,76.53
2022-09-20T19:08:26.643Z,76.61
2022-09-20T19:11:02.316Z,76.79
2022-09-20T19:13:43.347Z,77.09
2022-09-20T19:16:20.811Z,77.19
2022-09-20T19:19:09.361Z,77.28
2022-09-20T19:21:47.472Z,77.29
2022-09-20T19:24:29.243Z,77.52
2022-09-20T19:27:07.310Z,77.73
2022-09-20T19:29:38.924Z,77.89
2022-09-20T19:32:16.399Z,77.89
2022-09-20T19:34:51.132Z,78.06
2022-09-20T19:37:31.090Z,78.12
2022-09-20T19:40:17.234Z,78.25
2022-09-20T19:43:03.418Z,78.51
2022-09-20T19:45:42.182Z,78.25
2022-09-20T19:48:18.355Z,78.66
2022-09-20T19:50:52.938Z,78.80
2022-09-20T19:53:27.630Z,78.75
2022-09-20T19:56:01.807Z,79.00
2022-09-20T19:58:33.027Z,78.79
2022-09-20T20:01:04.104Z,78.95
2022-09-20T20:03:35.801Z,79.09
2022-09-20T20:06:12.791Z,79.19
2022-09-20T20:08:45.827Z,79.19
2022-09-20T20:11:27.569Z,79.41
2022-09-20T20:14:07.213Z,79.39
2022-09-20T20:16:53.890Z,79.55
2022-09-20T20:19:39.991Z,79.54
2022-09-20T20:22:28.422Z,79.69
2022-09-20T20:24:59.666Z,79.68
2022-09-20T20:27:31.411Z,80.01
2022-09-20T20:30:01.757Z,79.96
2022-09-20T20:32:33.142Z,80.18
2022-09-20T20:35:03.421Z,79.92
2022-09-20T20:37:35.085Z,80.23
2022-09-20T20:40:06.246Z,80.35
2022-09-20T20:42:37.163Z,80.29
2022-09-20T20:45:10.448Z,80.43
2022-09-20T20:47:44.279Z,80.37
2022-09-20T20:50:15.083Z,80.27
2022-09-20T20:52:46.004Z,80.46
2022-09-20T20:55:17.411Z,80.60
2022-09-20T20:57:52.242Z,80.69
2022-09-20T21:00:22.849Z,80.70
2022-09-20T21:02:59.150Z,80.99
2022-09-20T21:05:30.122Z,81.06
2022-09-20T21:08:00.399Z,80.86
2022-09-20T21:10:30.803Z,81.18
2022-09-20T21:13:01.594Z,81.18
2022-09-20T21:15:31.997Z,81.21
2022-09-20T21:18:02.326Z,81.20
2022-09-20T21:20:32.675Z,81.10
2022-09-20T21:23:02.911Z,81.29
2022-09-20T21:25:33.220Z,81.13
2022-09-20T21:28:03.905Z,81.40
2022-09-20T21:30:34.192Z,81.44
2022-09-20T21:33:04.666Z,81.39
2022-09-20T21:35:34.914Z,81.45
2022-09-20T21:38:05.195Z,81.65
2022-09-20T21:40:35.908Z,81.46
2022-09-20T21:43:06.442Z,81.69
2022-09-20T21:45:40.335Z,81.77
2022-09-20T21:48:10.907Z,81.84
2022-09-20T21:50:41.134Z,81.71
2022-09-20T21:53:11.441Z,81.97
2022-09-20T21:55:41.761Z,81.94
2022-09-20T21:58:12.093Z,82.22
2022-09-20T22:00:43.292Z,82.30
2022-09-20T22:03:14.449Z,82.23
2022-09-20T22:05:44.750Z,82.26
2022-09-20T22:08:15.608Z,82.49
2022-09-20T22:10:55.390Z,82.41
2022-09-20T22:13:25.918Z,82.64
2022-09-20T22:16:03.261Z,82.57
2022-09-20T22:18:38.301Z,82.64
2022-09-20T22:21:12.090Z,82.56
2022-09-20T22:23:43.248Z,82.60
2022-09-20T22:26:15.657Z,82.61
2022-09-20T22:28:46.869Z,82.93
2022-09-20T22:31:18.690Z,83.05
2022-09-20T22:33:50.976Z,83.02
2022-09-20T22:36:23.174Z,83.15
2022-09-20T22:38:54.269Z,83.14
2022-09-20T22:41:25.163Z,82.98
2022-09-20T22:43:55.700Z,83.19
2022-09-20T22:46:28.211Z,83.14
2022-09-20T22:48:58.518Z,83.02
2022-09-20T22:51:30.789Z,83.34
2022-09-20T22:54:01.424Z,83.33
2022-09-20T22:56:32.414Z,83.16
2022-09-20T23:54:34.151Z,84.57
2022-09-20T23:57:04.579Z,84.37
2022-09-20T23:59:34.880Z,84.66
